createdAt,value
2023-03-15T00:00:32.364Z,41.35
2023-03-15T00:01:32.337Z,45.95
2023-03-15T00:04:49.737Z,37.73
2023-03-15T00:05:49.742Z,39.40
2023-03-15T00:06:49.711Z,39.92
2023-03-15T00:07:49.705Z,39.86
2023-03-15T00:08:49.697Z,41.24
2023-03-15T00:09:49.684Z,42.00
2023-03-15T00:10:49.682Z,48.59
2023-03-15T00:11:49.792Z,41.81
2023-03-15T00:12:49.648Z,41.32
2023-03-15T00:13:49.640Z,41.14
2023-03-15T00:14:49.625Z,41.89
2023-03-15T00:15:49.690Z,42.01
2023-03-15T00:16:49.760Z,41.44
2023-03-15T00:17:49.598Z,41.35
2023-03-15T00:18:49.582Z,41.66
2023-03-15T00:19:49.583Z,41.32
2023-03-15T00:20:49.577Z,41.30
2023-03-15T00:21:49.558Z,42.61
2023-03-15T00:22:49.553Z,42.75
2023-03-15T00:23:49.537Z,41.78
2023-03-15T00:24:49.522Z,41.28
2023-03-15T00:25:49.530Z,41.48
2023-03-15T00:26:49.497Z,41.08
2023-03-15T00:27:49.493Z,41.48
2023-03-15T00:28:49.478Z,42.03
2023-03-15T00:29:49.472Z,41.91
2023-03-15T00:30:49.520Z,43.81
2023-03-15T00:31:49.453Z,43.21
2023-03-15T00:32:49.509Z,43.91
2023-03-15T00:33:49.430Z,44.76
2023-03-15T00:34:49.419Z,43.17
2023-03-15T00:35:49.440Z,43.42
2023-03-15T00:36:49.396Z,43.32
2023-03-15T00:37:49.393Z,44.06
2023-03-15T00:38:49.379Z,44.62
2023-03-15T00:39:49.365Z,44.06
2023-03-15T00:40:49.359Z,43.80
2023-03-15T00:41:49.353Z,41.66
2023-03-15T00:42:49.334Z,42.24
2023-03-15T00:43:49.329Z,41.67
2023-03-15T00:44:49.312Z,41.32
2023-03-15T00:45:49.318Z,41.85
2023-03-15T00:46:49.366Z,42.42
2023-03-15T00:47:49.286Z,47.67
2023-03-15T00:48:49.280Z,43.06
2023-03-15T00:49:49.265Z,44.67
2023-03-15T00:50:49.278Z,44.68
2023-03-15T00:51:49.242Z,43.33
2023-03-15T00:52:49.229Z,42.62
2023-03-15T00:53:49.223Z,44.26
2023-03-15T00:54:49.211Z,42.62
2023-03-15T00:55:49.215Z,41.72
2023-03-15T00:56:49.191Z,41.67
2023-03-15T00:57:49.209Z,41.29
2023-03-15T00:58:49.170Z,40.78
2023-03-15T00:59:49.162Z,43.45
2023-03-15T01:00:49.158Z,43.76
2023-03-15T01:01:49.172Z,44.15
2023-03-15T01:02:49.173Z,44.27
2023-03-15T01:03:49.151Z,44.07
2023-03-15T01:04:49.104Z,43.83
2023-03-15T01:05:49.103Z,43.37
2023-03-15T01:06:49.079Z,43.16
2023-03-15T01:07:49.080Z,42.86
2023-03-15T01:08:49.060Z,43.27
2023-03-15T01:09:49.057Z,42.77
2023-03-15T01:10:49.047Z,42.36
2023-03-15T01:11:49.031Z,42.14
2023-03-15T01:12:49.020Z,41.83
2023-03-15T01:13:49.014Z,42.82
2023-03-15T01:14:48.998Z,43.96
2023-03-15T01:15:49.010Z,42.82
2023-03-15T01:16:48.977Z,42.18
2023-03-15T01:17:48.971Z,43.89
2023-03-15T01:18:48.962Z,49.45
2023-03-15T01:19:48.954Z,46.09
2023-03-15T01:20:48.946Z,45.17
2023-03-15T01:21:48.931Z,43.92
2023-03-15T01:22:48.925Z,43.69
2023-03-15T01:23:48.926Z,43.39
2023-03-15T01:24:48.913Z,43.39
2023-03-15T01:25:48.901Z,43.57
2023-03-15T01:26:48.873Z,46.75
2023-03-15T01:27:48.865Z,43.21
2023-03-15T01:28:48.854Z,44.04
2023-03-15T01:29:48.849Z,45.71
2023-03-15T01:30:49.863Z,44.91
2023-03-15T01:31:48.875Z,43.48
2023-03-15T01:32:48.839Z,43.58
2023-03-15T01:33:48.807Z,43.99
2023-03-15T01:34:48.790Z,42.18
2023-03-15T01:35:48.874Z,41.89
2023-03-15T01:36:48.771Z,43.01
2023-03-15T01:37:48.765Z,42.72
2023-03-15T01:38:48.755Z,44.18
2023-03-15T01:39:48.759Z,42.87
2023-03-15T01:40:48.747Z,44.68
2023-03-15T01:41:48.730Z,44.96
2023-03-15T01:42:48.714Z,43.57
2023-03-15T01:43:48.717Z,44.93
2023-03-15T01:44:48.691Z,43.59
2023-03-15T01:45:48.699Z,42.91
2023-03-15T01:46:48.680Z,42.87
2023-03-15T01:47:48.662Z,43.94
2023-03-15T01:48:48.652Z,45.27
2023-03-15T01:49:48.641Z,41.65
2023-03-15T01:50:48.639Z,42.24
2023-03-15T01:51:48.624Z,43.83
2023-03-15T01:52:48.606Z,43.31
2023-03-15T01:53:48.601Z,43.66
2023-03-15T01:54:48.593Z,42.92
2023-03-15T01:55:48.593Z,43.39
2023-03-15T01:56:48.569Z,44.86
2023-03-15T01:57:48.558Z,44.68
2023-03-15T01:58:48.545Z,44.34
2023-03-15T01:59:48.540Z,44.01
2023-03-15T02:00:48.587Z,43.45
2023-03-15T02:01:48.541Z,43.97
2023-03-15T02:02:48.504Z,44.32
2023-03-15T02:03:48.494Z,46.77
2023-03-15T02:04:48.495Z,44.12
2023-03-15T02:05:48.489Z,43.41
2023-03-15T02:06:48.468Z,46.82
2023-03-15T02:07:48.462Z,44.40
2023-03-15T02:08:48.443Z,42.36
2023-03-15T02:09:48.440Z,42.29
2023-03-15T02:10:48.456Z,44.46
2023-03-15T02:11:48.419Z,51.87
2023-03-15T02:12:48.402Z,45.64
2023-03-15T02:13:48.396Z,44.03
2023-03-15T02:14:48.396Z,44.36
2023-03-15T02:15:48.380Z,44.18
2023-03-15T02:16:48.429Z,43.32
2023-03-15T02:17:48.357Z,44.86
2023-03-15T02:18:48.347Z,44.38
2023-03-15T02:19:48.344Z,45.85
2023-03-15T02:20:48.327Z,46.40
2023-03-15T02:21:48.322Z,49.64
2023-03-15T02:22:48.301Z,43.54
2023-03-15T02:23:48.292Z,43.46
2023-03-15T02:24:48.284Z,43.26
2023-03-15T02:25:48.271Z,42.64
2023-03-15T02:26:48.269Z,44.57
2023-03-15T02:27:48.248Z,48.52
2023-03-15T02:28:48.236Z,44.20
2023-03-15T02:29:48.229Z,43.09
2023-03-15T02:30:48.218Z,42.67
2023-03-15T02:31:48.248Z,42.86
2023-03-15T02:32:48.239Z,43.79
2023-03-15T02:33:48.188Z,43.53
2023-03-15T02:34:48.179Z,43.78
2023-03-15T02:35:48.181Z,45.04
2023-03-15T02:36:48.167Z,44.46
2023-03-15T02:37:48.148Z,42.60
2023-03-15T02:38:48.133Z,42.82
2023-03-15T02:39:48.135Z,43.50
2023-03-15T02:40:48.116Z,42.58
2023-03-15T02:41:48.124Z,42.94
2023-03-15T02:42:48.101Z,42.17
2023-03-15T02:43:48.089Z,43.81
2023-03-15T02:44:48.074Z,44.70
2023-03-15T02:45:48.098Z,47.84
2023-03-15T02:46:48.069Z,45.14
2023-03-15T02:47:48.048Z,44.87
2023-03-15T02:48:48.036Z,43.92
2023-03-15T02:49:48.025Z,43.49
2023-03-15T02:50:48.014Z,44.33
2023-03-15T02:51:48.019Z,44.47
2023-03-15T02:52:47.996Z,46.03
2023-03-15T02:53:47.986Z,45.27
2023-03-15T02:54:47.976Z,45.00
2023-03-15T02:55:54.152Z,45.39
2023-03-15T02:56:47.963Z,44.42
2023-03-15T02:57:47.944Z,43.88
2023-03-15T02:58:47.934Z,43.72
2023-03-15T02:59:47.925Z,47.12
2023-03-15T03:00:47.932Z,45.92
2023-03-15T03:01:47.915Z,44.43
2023-03-15T03:02:47.976Z,44.84
2023-03-15T03:03:47.879Z,45.62
2023-03-15T03:04:47.874Z,45.25
2023-03-15T03:05:47.865Z,43.72
2023-03-15T03:06:47.858Z,44.40
2023-03-15T03:07:47.840Z,45.30
2023-03-15T03:08:47.845Z,49.12
2023-03-15T03:09:47.823Z,46.37
2023-03-15T03:10:47.816Z,48.49
2023-03-15T03:11:47.814Z,47.35
2023-03-15T03:12:47.792Z,46.77
2023-03-15T03:13:47.774Z,46.14
2023-03-15T03:14:47.771Z,47.46
2023-03-15T03:15:47.761Z,47.13
2023-03-15T03:16:47.783Z,46.83
2023-03-15T03:17:47.734Z,46.00
2023-03-15T03:18:47.729Z,46.82
2023-03-15T03:19:47.717Z,46.94
2023-03-15T03:20:47.705Z,48.50
2023-03-15T03:21:47.703Z,47.72
2023-03-15T03:22:47.698Z,45.48
2023-03-15T03:23:47.672Z,46.20
2023-03-15T03:24:47.665Z,46.60
2023-03-15T03:25:47.646Z,46.65
2023-03-15T03:26:47.651Z,46.82
2023-03-15T03:27:47.635Z,47.27
2023-03-15T03:28:47.632Z,46.95
2023-03-15T03:29:47.604Z,50.06
2023-03-15T03:30:47.673Z,50.26
2023-03-15T03:31:47.599Z,47.84
2023-03-15T03:32:47.618Z,47.99
2023-03-15T03:33:47.572Z,47.30
2023-03-15T03:34:47.560Z,45.91
2023-03-15T03:35:47.598Z,45.86
2023-03-15T03:36:47.539Z,46.28
2023-03-15T03:37:47.544Z,46.69
2023-03-15T03:38:47.525Z,48.25
2023-03-15T03:39:47.504Z,50.58
2023-03-15T03:40:47.496Z,48.22
2023-03-15T03:41:47.489Z,48.59
2023-03-15T03:42:47.509Z,49.70
2023-03-15T03:43:47.464Z,50.14
2023-03-15T03:44:47.462Z,48.62
2023-03-15T03:45:47.473Z,49.68
2023-03-15T03:46:47.431Z,48.50
2023-03-15T03:47:47.434Z,47.18
2023-03-15T03:48:47.409Z,52.12
2023-03-15T03:49:47.394Z,49.81
2023-03-15T03:50:47.391Z,48.67
2023-03-15T03:51:47.382Z,48.55
2023-03-15T03:52:47.378Z,48.01
2023-03-15T03:53:47.353Z,49.16
2023-03-15T03:54:47.349Z,49.06
2023-03-15T03:55:47.333Z,48.38
2023-03-15T03:56:47.326Z,52.87
2023-03-15T03:57:47.328Z,51.06
2023-03-15T03:58:47.300Z,49.44
2023-03-15T03:59:47.291Z,48.56
2023-03-15T04:00:47.287Z,47.78
2023-03-15T04:01:47.264Z,47.60
2023-03-15T04:02:47.343Z,47.60
2023-03-15T04:03:47.252Z,48.35
2023-03-15T04:04:47.286Z,47.96
2023-03-15T04:05:47.225Z,48.05
2023-03-15T04:06:47.212Z,48.26
2023-03-15T04:07:47.218Z,50.19
2023-03-15T04:08:47.216Z,48.93
2023-03-15T04:09:47.186Z,50.03
2023-03-15T04:10:47.172Z,51.94
2023-03-15T04:11:47.161Z,49.99
2023-03-15T04:12:47.170Z,48.21
2023-03-15T04:13:47.147Z,48.27
2023-03-15T04:14:47.138Z,47.17
2023-03-15T04:15:47.157Z,53.67
2023-03-15T04:16:47.124Z,50.43
2023-03-15T04:17:47.105Z,53.55
2023-03-15T04:18:47.092Z,54.02
2023-03-15T04:19:47.210Z,48.89
2023-03-15T04:20:47.082Z,52.66
2023-03-15T04:21:47.078Z,51.55
2023-03-15T04:22:47.063Z,48.91
2023-03-15T04:23:47.036Z,50.40
2023-03-15T04:24:47.033Z,49.11
2023-03-15T04:25:47.017Z,49.13
2023-03-15T04:26:47.012Z,51.75
2023-03-15T04:27:47.008Z,50.52
2023-03-15T04:28:46.998Z,51.02
2023-03-15T04:29:46.979Z,52.47
2023-03-15T04:30:46.971Z,51.86
2023-03-15T04:31:46.968Z,51.80
2023-03-15T04:32:46.983Z,56.16
2023-03-15T04:33:46.935Z,50.78
2023-03-15T04:34:46.933Z,50.59
2023-03-15T04:35:46.998Z,47.32
2023-03-15T04:36:46.906Z,50.58
2023-03-15T04:37:46.927Z,55.42
2023-03-15T04:38:46.895Z,54.40
2023-03-15T04:39:46.878Z,49.96
2023-03-15T04:40:46.872Z,52.35
2023-03-15T04:41:46.856Z,49.66
2023-03-15T04:42:46.860Z,48.94
2023-03-15T04:43:46.837Z,53.39
2023-03-15T04:44:46.832Z,52.00
2023-03-15T04:45:46.816Z,53.10
2023-03-15T04:46:46.930Z,49.53
2023-03-15T04:47:46.868Z,53.31
2023-03-15T04:48:46.784Z,48.53
2023-03-15T04:49:46.808Z,47.99
2023-03-15T04:50:46.765Z,50.63
2023-03-15T04:51:46.749Z,52.38
2023-03-15T04:52:46.758Z,46.68
2023-03-15T04:53:46.739Z,51.25
2023-03-15T04:54:46.726Z,50.21
2023-03-15T04:55:46.712Z,46.27
2023-03-15T04:56:46.708Z,48.80
2023-03-15T04:57:46.700Z,47.21
2023-03-15T04:58:46.684Z,48.38
2023-03-15T04:59:46.674Z,51.18
2023-03-15T05:00:46.686Z,49.33
2023-03-15T05:01:46.665Z,49.20
2023-03-15T05:02:46.655Z,54.03
2023-03-15T05:03:46.634Z,50.84
2023-03-15T05:04:46.623Z,52.19
2023-03-15T05:05:46.610Z,49.61
2023-03-15T05:06:46.599Z,50.42
2023-03-15T05:07:46.600Z,52.32
2023-03-15T05:08:46.585Z,54.52
2023-03-15T05:09:46.564Z,50.96
2023-03-15T05:10:46.562Z,49.32
2023-03-15T05:11:46.556Z,47.89
2023-03-15T05:12:46.550Z,47.62
2023-03-15T05:13:46.520Z,51.58
2023-03-15T05:14:46.560Z,52.76
2023-03-15T05:15:46.504Z,56.52
2023-03-15T05:16:46.493Z,54.42
2023-03-15T05:17:46.572Z,51.19
2023-03-15T05:18:46.473Z,52.75
2023-03-15T05:19:46.466Z,53.20
2023-03-15T05:20:46.458Z,50.78
2023-03-15T05:21:46.444Z,54.39
2023-03-15T05:22:46.439Z,52.26
2023-03-15T05:23:46.430Z,52.09
2023-03-15T05:24:46.414Z,47.75
2023-03-15T05:25:46.396Z,50.97
2023-03-15T05:26:46.395Z,49.46
2023-03-15T05:27:46.471Z,51.06
2023-03-15T05:28:46.369Z,52.69
2023-03-15T05:29:46.355Z,52.15
2023-03-15T05:30:46.350Z,55.10
2023-03-15T05:31:46.362Z,54.44
2023-03-15T05:32:46.392Z,53.97
2023-03-15T05:33:46.313Z,53.94
2023-03-15T05:34:46.304Z,46.99
2023-03-15T05:35:46.393Z,46.79
2023-03-15T05:36:46.287Z,53.51
2023-03-15T05:37:46.293Z,56.50
2023-03-15T05:38:46.262Z,56.89
2023-03-15T05:39:46.254Z,54.73
2023-03-15T05:40:46.307Z,53.67
2023-03-15T05:41:46.231Z,51.74
2023-03-15T05:42:46.228Z,53.09
2023-03-15T05:43:46.207Z,50.23
2023-03-15T05:44:46.227Z,52.81
2023-03-15T05:45:46.239Z,50.59
2023-03-15T05:46:46.201Z,48.80
2023-03-15T05:47:46.180Z,56.99
2023-03-15T05:48:46.158Z,54.71
2023-03-15T05:49:46.145Z,52.41
2023-03-15T05:50:46.137Z,57.36
2023-03-15T05:51:46.123Z,53.26
2023-03-15T05:52:46.127Z,58.33
2023-03-15T05:53:46.473Z,56.56
2023-03-15T05:54:46.097Z,52.25
2023-03-15T05:55:46.083Z,55.92
2023-03-15T05:56:46.078Z,55.54
2023-03-15T05:57:46.064Z,53.25
2023-03-15T05:58:46.053Z,51.51
2023-03-15T05:59:46.037Z,57.00
2023-03-15T06:00:46.031Z,54.85
2023-03-15T06:01:46.018Z,56.79
2023-03-15T06:02:46.022Z,50.08
2023-03-15T06:03:46.075Z,52.53
2023-03-15T06:04:45.983Z,52.33
2023-03-15T06:05:45.984Z,56.13
2023-03-15T06:06:45.975Z,55.28
2023-03-15T06:07:45.963Z,58.33
2023-03-15T06:08:45.943Z,58.48
2023-03-15T06:09:45.930Z,53.45
2023-03-15T06:10:45.921Z,52.04
2023-03-15T06:11:45.906Z,55.75
2023-03-15T06:12:45.908Z,55.74
2023-03-15T06:13:45.898Z,54.57
2023-03-15T06:14:45.879Z,58.82
2023-03-15T06:15:45.866Z,53.14
2023-03-15T06:16:45.893Z,55.53
2023-03-15T06:17:45.845Z,50.66
2023-03-15T06:18:45.848Z,61.00
2023-03-15T06:19:45.821Z,51.80
2023-03-15T06:20:45.812Z,56.22
2023-03-15T06:21:45.823Z,52.65
2023-03-15T06:22:45.792Z,57.70
2023-03-15T06:23:45.793Z,59.52
2023-03-15T06:24:45.771Z,54.74
2023-03-15T06:25:45.756Z,60.89
2023-03-15T06:26:45.750Z,53.72
2023-03-15T06:27:45.743Z,49.08
2023-03-15T06:28:45.740Z,59.70
2023-03-15T06:29:45.719Z,52.85
2023-03-15T06:30:45.739Z,54.50
2023-03-15T06:31:45.705Z,54.92
2023-03-15T06:32:45.704Z,56.67
2023-03-15T06:33:45.689Z,53.16
2023-03-15T06:34:45.674Z,53.82
2023-03-15T06:35:45.683Z,57.50
2023-03-15T06:36:45.651Z,56.50
2023-03-15T06:37:45.636Z,56.27
2023-03-15T06:38:45.650Z,56.38
2023-03-15T06:39:45.617Z,54.22
2023-03-15T06:40:45.613Z,56.40
2023-03-15T06:41:45.595Z,56.31
2023-03-15T06:42:45.586Z,53.80
2023-03-15T06:43:45.585Z,58.91
2023-03-15T06:44:45.575Z,56.76
2023-03-15T06:45:45.598Z,54.46
2023-03-15T06:46:45.546Z,57.14
2023-03-15T06:47:45.534Z,61.85
2023-03-15T06:48:45.535Z,52.34
2023-03-15T06:49:45.509Z,53.47
2023-03-15T06:50:47.696Z,55.04
2023-03-15T06:51:45.514Z,59.49
2023-03-15T06:52:45.482Z,57.23
2023-03-15T06:53:45.480Z,60.63
2023-03-15T06:54:45.482Z,57.86
2023-03-15T06:55:45.470Z,55.89
2023-03-15T06:56:45.454Z,53.95
2023-03-15T06:57:45.432Z,52.04
2023-03-15T06:58:45.470Z,53.04
2023-03-15T06:59:45.413Z,54.44
2023-03-15T07:00:45.396Z,54.78
2023-03-15T07:01:45.422Z,54.80
2023-03-15T07:02:45.435Z,52.24
2023-03-15T07:03:45.389Z,53.46
2023-03-15T07:04:45.368Z,49.19
2023-03-15T07:05:45.344Z,53.72
2023-03-15T07:06:45.338Z,52.10
2023-03-15T07:07:45.329Z,50.83
2023-03-15T07:08:45.328Z,48.40
2023-03-15T07:09:45.302Z,57.94
2023-03-15T07:10:45.318Z,53.18
2023-03-15T07:11:45.288Z,54.27
2023-03-15T07:12:45.287Z,50.73
2023-03-15T07:13:45.300Z,52.72
2023-03-15T07:14:45.256Z,51.61
2023-03-15T07:15:45.275Z,54.91
2023-03-15T07:16:45.238Z,50.07
2023-03-15T07:17:45.223Z,49.22
2023-03-15T07:18:45.233Z,52.25
2023-03-15T07:19:55.833Z,49.40
2023-03-15T07:20:46.200Z,54.62
2023-03-15T07:21:45.183Z,56.36
2023-03-15T07:22:45.180Z,49.88
2023-03-15T07:23:45.179Z,55.14
2023-03-15T07:24:45.152Z,54.26
2023-03-15T07:25:54.845Z,50.13
2023-03-15T07:26:46.167Z,50.89
2023-03-15T07:27:45.124Z,49.69
2023-03-15T07:28:45.119Z,52.37
2023-03-15T07:29:45.118Z,49.20
2023-03-15T07:30:45.567Z,53.06
2023-03-15T07:31:45.087Z,57.67
2023-03-15T07:32:45.190Z,54.26
2023-03-15T07:33:45.078Z,54.43
2023-03-15T07:34:45.054Z,54.43
2023-03-15T07:35:45.100Z,50.18
2023-03-15T07:36:45.026Z,58.85
2023-03-15T07:37:45.085Z,51.37
2023-03-15T07:38:45.019Z,56.84
2023-03-15T07:39:44.997Z,51.64
2023-03-15T07:40:44.985Z,54.36
2023-03-15T07:41:46.895Z,49.17
2023-03-15T07:42:44.960Z,55.90
2023-03-15T07:43:44.967Z,53.37
2023-03-15T07:44:44.944Z,51.21
2023-03-15T07:45:44.927Z,56.22
2023-03-15T07:46:44.953Z,61.35
2023-03-15T07:47:44.908Z,55.89
2023-03-15T07:48:44.940Z,55.33
2023-03-15T07:49:44.889Z,54.90
2023-03-15T07:50:44.933Z,50.11
2023-03-15T07:51:44.863Z,57.50
2023-03-15T07:52:44.857Z,59.72
2023-03-15T07:53:44.871Z,54.16
2023-03-15T07:54:44.863Z,50.25
2023-03-15T07:55:44.839Z,52.63
2023-03-15T07:56:44.811Z,49.05
2023-03-15T07:57:44.803Z,49.55
2023-03-15T07:58:44.796Z,55.88
2023-03-15T07:59:44.820Z,49.21
2023-03-15T08:00:44.783Z,54.94
2023-03-15T08:01:44.812Z,53.52
2023-03-15T08:02:44.814Z,56.63
2023-03-15T08:03:44.755Z,54.13
2023-03-15T08:04:44.727Z,51.30
2023-03-15T08:05:44.722Z,55.20
2023-03-15T08:06:44.704Z,57.07
2023-03-15T08:07:44.709Z,53.13
2023-03-15T08:08:44.700Z,54.91
2023-03-15T08:09:44.687Z,54.00
2023-03-15T08:10:44.666Z,53.06
2023-03-15T08:11:45.715Z,54.57
2023-03-15T08:12:44.698Z,55.46
2023-03-15T08:13:44.670Z,54.39
2023-03-15T08:14:44.630Z,48.13
2023-03-15T08:15:44.626Z,53.28
2023-03-15T08:16:44.707Z,52.29
2023-03-15T08:17:44.617Z,57.33
2023-03-15T08:18:44.593Z,55.05
2023-03-15T08:19:44.584Z,53.70
2023-03-15T08:20:44.569Z,52.99
2023-03-15T08:21:44.550Z,49.70
2023-03-15T08:22:44.596Z,56.41
2023-03-15T08:23:44.547Z,55.97
2023-03-15T08:28:18.056Z,51.35
2023-03-15T08:29:18.056Z,56.22
2023-03-15T08:30:18.026Z,53.11
2023-03-15T08:31:18.041Z,50.20
2023-03-15T08:32:18.005Z,53.40
2023-03-15T08:35:44.137Z,56.86
2023-03-15T08:36:44.282Z,55.68
2023-03-15T08:37:43.934Z,50.95
2023-03-15T08:38:43.933Z,50.75
2023-03-15T08:39:43.952Z,55.52
2023-03-15T08:40:43.898Z,52.65
2023-03-15T08:41:43.895Z,53.35
2023-03-15T08:42:43.875Z,52.04
2023-03-15T08:43:43.886Z,50.23
2023-03-15T08:44:43.892Z,55.75
2023-03-15T08:46:00.315Z,52.13
2023-03-15T08:46:44.942Z,55.10
2023-03-15T08:47:43.839Z,55.37
2023-03-15T08:48:43.827Z,56.06
2023-03-15T08:49:43.857Z,54.12
2023-03-15T08:50:43.791Z,54.15
2023-03-15T08:51:43.779Z,45.35
2023-03-15T08:52:43.774Z,47.80
2023-03-15T08:53:43.775Z,54.87
2023-03-15T08:54:43.746Z,49.35
2023-03-15T08:55:43.742Z,55.24
2023-03-15T08:56:43.723Z,53.94
2023-03-15T08:57:43.714Z,49.32
2023-03-15T08:58:43.714Z,46.27
2023-03-15T08:59:43.801Z,52.78
2023-03-15T09:00:43.698Z,55.37
2023-03-15T09:01:43.678Z,51.73
2023-03-15T09:02:43.726Z,52.71
2023-03-15T09:03:43.657Z,58.79
2023-03-15T09:04:43.733Z,51.32
2023-03-15T09:05:43.635Z,57.19
2023-03-15T09:06:43.624Z,57.91
2023-03-15T09:07:43.608Z,54.59
2023-03-15T09:08:43.607Z,52.03
2023-03-15T09:09:43.590Z,56.24
2023-03-15T09:10:43.575Z,56.37
2023-03-15T09:11:43.570Z,56.72
2023-03-15T09:12:43.556Z,49.28
2023-03-15T09:13:43.562Z,53.89
2023-03-15T09:14:43.530Z,57.93
2023-03-15T09:15:43.673Z,54.05
2023-03-15T09:16:44.206Z,56.16
2023-03-15T09:17:43.501Z,45.16
2023-03-15T09:18:43.492Z,54.71
2023-03-15T09:19:43.492Z,52.40
2023-03-15T09:20:43.471Z,56.21
2023-03-15T09:21:44.899Z,51.97
2023-03-15T09:22:43.464Z,51.09
2023-03-15T09:23:45.066Z,58.69
2023-03-15T09:24:43.444Z,56.63
2023-03-15T09:25:43.430Z,51.77
2023-03-15T09:26:43.419Z,55.17
2023-03-15T09:27:43.401Z,52.39
2023-03-15T09:28:43.386Z,46.86
2023-03-15T09:29:43.395Z,49.49
2023-03-15T09:30:43.442Z,54.87
2023-03-15T09:31:43.366Z,47.20
2023-03-15T09:32:43.479Z,55.90
2023-03-15T09:33:43.338Z,52.37
2023-03-15T09:34:43.342Z,54.10
2023-03-15T09:35:43.337Z,59.47
2023-03-15T09:36:43.300Z,54.52
2023-03-15T09:37:43.298Z,54.43
2023-03-15T09:38:43.288Z,51.11
2023-03-15T09:39:43.293Z,49.62
2023-03-15T09:40:43.501Z,50.86
2023-03-15T09:41:43.267Z,50.95
2023-03-15T09:42:43.243Z,58.55
2023-03-15T09:43:43.643Z,53.54
2023-03-15T09:52:53.117Z,43.66
2023-03-15T09:53:57.298Z,55.15
2023-03-15T09:54:53.189Z,53.97
2023-03-15T09:55:53.118Z,47.79
2023-03-15T10:00:45.707Z,43.50
2023-03-15T10:01:45.219Z,54.22
2023-03-15T10:02:45.034Z,46.06
2023-03-15T10:03:45.053Z,47.63
2023-03-15T10:04:44.993Z,50.21
2023-03-15T10:05:44.971Z,54.22
2023-03-15T10:06:44.948Z,52.23
2023-03-15T10:07:44.930Z,44.70
2023-03-15T10:08:44.917Z,50.42
2023-03-15T10:09:44.926Z,55.08
2023-03-15T10:10:44.946Z,51.43
2023-03-15T10:15:36.834Z,45.01
2023-03-15T10:16:36.822Z,51.14
2023-03-15T10:17:36.816Z,53.45
2023-03-15T10:18:36.803Z,55.64
2023-03-15T10:19:36.804Z,55.22
2023-03-15T10:20:36.783Z,53.05
2023-03-15T10:21:36.777Z,46.42
2023-03-15T10:22:37.507Z,49.51
2023-03-15T10:23:36.752Z,47.73
2023-03-15T10:24:36.744Z,48.01
2023-03-15T10:25:36.735Z,50.71
2023-03-15T10:26:36.719Z,49.51
2023-03-15T10:27:36.707Z,47.52
2023-03-15T10:28:37.239Z,49.43
2023-03-15T10:29:44.483Z,51.04
2023-03-15T10:30:36.891Z,48.10
2023-03-15T10:31:44.683Z,49.81
2023-03-15T10:32:37.692Z,47.37
2023-03-15T10:33:36.642Z,46.45
2023-03-15T10:35:05.531Z,51.78
2023-03-15T10:35:36.656Z,52.08
2023-03-15T10:36:36.627Z,53.45
2023-03-15T10:37:36.601Z,52.77
2023-03-15T10:38:36.629Z,49.07
2023-03-15T10:39:36.603Z,49.50
2023-03-15T10:40:36.581Z,54.75
2023-03-15T10:41:36.556Z,54.45
2023-03-15T10:42:36.824Z,55.15
2023-03-15T10:43:36.531Z,57.61
2023-03-15T10:44:36.525Z,53.25
2023-03-15T10:45:36.524Z,52.10
2023-03-15T10:46:36.526Z,53.20
2023-03-15T10:47:36.822Z,49.33
2023-03-15T10:48:36.483Z,48.01
2023-03-15T10:49:36.486Z,56.27
2023-03-15T10:50:36.469Z,50.48
2023-03-15T10:51:36.450Z,51.48
2023-03-15T10:52:36.441Z,55.89
2023-03-15T10:53:36.434Z,53.36
2023-03-15T10:54:36.417Z,55.76
2023-03-15T10:55:36.419Z,55.20
2023-03-15T10:56:36.405Z,43.50
2023-03-15T10:57:36.406Z,48.26
2023-03-15T10:58:36.384Z,46.22
2023-03-15T10:59:36.386Z,40.26
2023-03-15T11:00:36.399Z,49.49
2023-03-15T11:01:36.381Z,58.84
2023-03-15T11:02:36.358Z,53.96
2023-03-15T11:03:36.324Z,49.73
2023-03-15T11:04:36.315Z,56.24
2023-03-15T11:05:36.318Z,54.64
2023-03-15T11:06:36.287Z,46.01
2023-03-15T11:07:36.289Z,54.59
2023-03-15T11:08:36.268Z,52.94
2023-03-15T11:09:36.321Z,55.95
2023-03-15T11:10:36.285Z,53.08
2023-03-15T11:11:36.244Z,54.23
2023-03-15T11:12:36.228Z,43.98
2023-03-15T11:13:36.266Z,56.86
2023-03-15T11:14:36.215Z,51.14
2023-03-15T11:15:36.216Z,52.36
2023-03-15T11:16:36.328Z,49.92
2023-03-15T11:17:36.997Z,48.38
2023-03-15T11:18:36.168Z,52.29
2023-03-15T11:19:36.272Z,47.73
2023-03-15T11:20:36.161Z,54.47
2023-03-15T11:21:36.146Z,52.70
2023-03-15T11:22:36.925Z,46.97
2023-03-15T11:23:36.124Z,45.95
2023-03-15T11:24:36.142Z,49.52
2023-03-15T11:25:36.200Z,49.94
2023-03-15T11:30:28.045Z,49.00
2023-03-15T11:31:28.061Z,51.84
2023-03-15T11:32:28.080Z,52.91
2023-03-15T11:33:28.022Z,55.26
2023-03-15T11:34:28.000Z,52.36
2023-03-15T11:35:28.007Z,52.79
2023-03-15T11:36:27.991Z,51.05
2023-03-15T11:37:27.973Z,51.52
2023-03-15T11:38:27.969Z,53.82
2023-03-15T11:39:27.959Z,43.89
2023-03-15T11:40:27.944Z,55.40
2023-03-15T11:41:28.183Z,52.16
2023-03-15T11:43:03.684Z,48.44
2023-03-15T11:43:27.910Z,59.61
2023-03-15T11:44:27.901Z,53.38
2023-03-15T11:45:27.951Z,53.97
2023-03-15T11:46:27.895Z,46.57
2023-03-15T11:47:27.867Z,52.36
2023-03-15T11:48:27.878Z,54.54
2023-03-15T11:49:34.689Z,51.15
2023-03-15T11:50:27.847Z,53.72
2023-03-15T11:51:28.055Z,54.88
2023-03-15T11:52:27.899Z,45.46
2023-03-15T11:53:27.857Z,44.93
2023-03-15T11:54:27.795Z,48.97
2023-03-15T11:55:27.786Z,43.94
2023-03-15T11:56:27.792Z,46.49
2023-03-15T11:57:27.769Z,48.28
2023-03-15T11:58:27.754Z,49.37
2023-03-15T11:59:27.740Z,50.33
2023-03-15T12:00:27.735Z,50.32
2023-03-15T12:01:27.741Z,54.65
2023-03-15T12:02:27.778Z,53.07
2023-03-15T12:03:27.810Z,51.23
2023-03-15T12:04:27.693Z,51.32
2023-03-15T12:05:27.681Z,47.61
2023-03-15T12:06:27.678Z,53.26
2023-03-15T12:07:27.665Z,48.93
2023-03-15T12:08:27.645Z,49.79
2023-03-15T12:09:27.640Z,48.54
2023-03-15T12:10:27.625Z,44.81
2023-03-15T12:11:27.632Z,49.81
2023-03-15T12:12:27.606Z,48.47
2023-03-15T12:13:27.589Z,48.63
2023-03-15T12:14:27.582Z,49.93
2023-03-15T12:15:27.629Z,44.78
2023-03-15T12:16:27.618Z,51.16
2023-03-15T12:17:27.545Z,48.65
2023-03-15T12:18:27.536Z,51.40
2023-03-15T12:19:27.522Z,47.72
2023-03-15T12:20:27.510Z,46.27
2023-03-15T12:21:28.646Z,48.97
2023-03-15T12:22:28.614Z,48.27
2023-03-15T12:23:28.606Z,53.93
2023-03-15T12:24:28.609Z,48.15
2023-03-15T12:25:28.583Z,50.91
2023-03-15T12:26:28.584Z,44.82
2023-03-15T12:27:28.570Z,43.24
2023-03-15T12:28:28.555Z,45.28
2023-03-15T12:29:29.540Z,51.65
2023-03-15T12:30:28.663Z,52.79
2023-03-15T12:31:28.551Z,54.94
2023-03-15T12:32:28.570Z,47.41
2023-03-15T12:40:42.229Z,44.18
2023-03-15T12:41:42.137Z,52.08
2023-03-15T12:46:35.067Z,52.80
2023-03-15T12:47:34.050Z,44.18
2023-03-15T12:50:59.967Z,53.41
2023-03-15T12:52:00.442Z,42.83
2023-03-15T12:53:00.353Z,46.86
2023-03-15T12:54:00.081Z,46.63
2023-03-15T12:58:51.929Z,46.11
2023-03-15T12:59:51.968Z,47.25
2023-03-15T13:00:52.015Z,49.83
2023-03-15T13:01:54.637Z,41.61
2023-03-15T13:02:52.330Z,51.08
2023-03-15T13:24:56.678Z,48.34
2023-03-15T13:25:56.631Z,46.21
2023-03-15T13:26:59.346Z,47.41
2023-03-15T13:27:56.675Z,48.08
2023-03-15T13:28:56.677Z,45.95
2023-03-15T13:29:56.662Z,40.78
2023-03-15T13:30:56.667Z,43.52
2023-03-15T13:31:56.578Z,50.02
2023-03-15T13:32:56.645Z,45.99
2023-03-15T13:33:56.573Z,46.06
2023-03-15T13:34:56.534Z,47.37
2023-03-15T13:35:56.577Z,54.78
2023-03-15T13:36:56.510Z,46.61
2023-03-15T13:37:56.517Z,40.38
2023-03-15T13:38:56.485Z,48.03
2023-03-15T13:39:56.500Z,41.41
2023-03-15T13:40:56.474Z,48.97
2023-03-15T13:41:56.463Z,55.23
2023-03-15T13:42:57.740Z,48.66
2023-03-15T13:43:56.465Z,38.15
2023-03-15T13:44:56.427Z,46.19
2023-03-15T13:45:56.417Z,47.40
2023-03-15T13:46:56.436Z,47.25
2023-03-15T13:47:56.414Z,44.71
2023-03-15T13:48:56.585Z,45.75
2023-03-15T13:49:57.742Z,52.11
2023-03-15T13:50:56.383Z,45.13
2023-03-15T13:51:56.372Z,45.78
2023-03-15T13:52:56.368Z,48.63
2023-03-15T13:53:56.339Z,51.58
2023-03-15T13:54:56.334Z,48.21
2023-03-15T13:55:56.328Z,43.76
2023-03-15T13:56:56.323Z,44.42
2023-03-15T13:57:56.315Z,51.27
2023-03-15T13:58:56.286Z,45.82